sensor_id;sensor_type;location;lat;lon;timestamp;temperature;humidity
4201;DHT22;2114;50.398;8.814;2023-03-23T00:02:40;11.70;99.90
4201;DHT22;2114;50.398;8.814;2023-03-23T00:07:41;11.80;99.90
4201;DHT22;2114;50.398;8.814;2023-03-23T00:12:45;11.80;99.90
4201;DHT22;2114;50.398;8.814;2023-03-23T00:17:49;11.90;99.90
4201;DHT22;2114;50.398;8.814;2023-03-23T00:22:51;11.90;99.90
4201;DHT22;2114;50.398;8.814;2023-03-23T00:27:51;11.90;99.90
4201;DHT22;2114;50.398;8.814;2023-03-23T00:32:52;12.00;99.90
4201;DHT22;2114;50.398;8.814;2023-03-23T00:37:53;12.00;99.90
4201;DHT22;2114;50.398;8.814;2023-03-23T00:42:53;12.00;99.90
4201;DHT22;2114;50.398;8.814;2023-03-23T00:47:54;12.00;99.90
4201;DHT22;2114;50.398;8.814;2023-03-23T00:52:55;12.10;99.90
4201;DHT22;2114;50.398;8.814;2023-03-23T00:57:57;12.10;99.90
4201;DHT22;2114;50.398;8.814;2023-03-23T01:02:57;12.10;99.90
4201;DHT22;2114;50.398;8.814;2023-03-23T01:07:58;12.10;99.90
4201;DHT22;2114;50.398;8.814;2023-03-23T01:13:00;12.10;99.90
4201;DHT22;2114;50.398;8.814;2023-03-23T01:18:01;12.10;99.90
4201;DHT22;2114;50.398;8.814;2023-03-23T01:23:03;12.10;99.90
4201;DHT22;2114;50.398;8.814;2023-03-23T01:28:03;12.10;99.90
4201;DHT22;2114;50.398;8.814;2023-03-23T01:33:04;12.10;99.90
4201;DHT22;2114;50.398;8.814;2023-03-23T01:38:05;12.10;99.90
4201;DHT22;2114;50.398;8.814;2023-03-23T01:43:11;12.10;99.90
4201;DHT22;2114;50.398;8.814;2023-03-23T01:48:28;12.10;99.90
4201;DHT22;2114;50.398;8.814;2023-03-23T01:53:56;12.10;99.90
4201;DHT22;2114;50.398;8.814;2023-03-23T01:58:57;12.00;99.90
4201;DHT22;2114;50.398;8.814;2023-03-23T02:03:58;12.00;99.90
4201;DHT22;2114;50.398;8.814;2023-03-23T02:08:59;12.00;99.90
4201;DHT22;2114;50.398;8.814;2023-03-23T02:14:01;12.00;99.90
4201;DHT22;2114;50.398;8.814;2023-03-23T02:35:40;11.90;99.90
4201;DHT22;2114;50.398;8.814;2023-03-23T02:40:45;11.90;99.90
4201;DHT22;2114;50.398;8.814;2023-03-23T02:45:46;11.80;99.90
4201;DHT22;2114;50.398;8.814;2023-03-23T02:50:51;11.80;99.90
4201;DHT22;2114;50.398;8.814;2023-03-23T02:55:54;11.70;99.90
4201;DHT22;2114;50.398;8.814;2023-03-23T03:00:56;11.60;99.90
4201;DHT22;2114;50.398;8.814;2023-03-23T03:06:10;11.50;99.90
4201;DHT22;2114;50.398;8.814;2023-03-23T03:11:17;11.40;99.90
4201;DHT22;2114;50.398;8.814;2023-03-23T03:16:26;11.40;99.90
4201;DHT22;2114;50.398;8.814;2023-03-23T03:21:30;11.30;99.90
4201;DHT22;2114;50.398;8.814;2023-03-23T03:26:32;11.20;99.90
4201;DHT22;2114;50.398;8.814;2023-03-23T03:31:38;11.20;99.90
4201;DHT22;2114;50.398;8.814;2023-03-23T03:36:40;11.20;99.90
4201;DHT22;2114;50.398;8.814;2023-03-23T03:41:41;11.20;99.90
4201;DHT22;2114;50.398;8.814;2023-03-23T03:46:42;11.10;99.90
4201;DHT22;2114;50.398;8.814;2023-03-23T03:51:43;11.10;99.90
4201;DHT22;2114;50.398;8.814;2023-03-23T03:56:46;11.10;99.90
4201;DHT22;2114;50.398;8.814;2023-03-23T04:01:47;11.10;99.90
4201;DHT22;2114;50.398;8.814;2023-03-23T04:06:47;11.10;99.90
4201;DHT22;2114;50.398;8.814;2023-03-23T04:11:49;11.00;99.90
4201;DHT22;2114;50.398;8.814;2023-03-23T04:16:49;11.00;99.90
4201;DHT22;2114;50.398;8.814;2023-03-23T04:21:52;11.00;99.90
4201;DHT22;2114;50.398;8.814;2023-03-23T04:26:52;11.00;99.90
4201;DHT22;2114;50.398;8.814;2023-03-23T04:31:54;10.90;99.90
4201;DHT22;2114;50.398;8.814;2023-03-23T04:36:56;10.90;99.90
4201;DHT22;2114;50.398;8.814;2023-03-23T04:41:59;10.90;99.90
4201;DHT22;2114;50.398;8.814;2023-03-23T04:47:01;10.90;99.90
4201;DHT22;2114;50.398;8.814;2023-03-23T04:52:02;10.90;99.90
4201;DHT22;2114;50.398;8.814;2023-03-23T04:57:03;10.90;99.90
4201;DHT22;2114;50.398;8.814;2023-03-23T05:02:03;10.80;99.90
4201;DHT22;2114;50.398;8.814;2023-03-23T05:07:04;10.80;99.90
4201;DHT22;2114;50.398;8.814;2023-03-23T05:12:09;10.80;99.90
4201;DHT22;2114;50.398;8.814;2023-03-23T05:17:10;10.70;99.90
4201;DHT22;2114;50.398;8.814;2023-03-23T05:22:10;10.70;99.90
4201;DHT22;2114;50.398;8.814;2023-03-23T05:27:14;10.70;99.90
4201;DHT22;2114;50.398;8.814;2023-03-23T05:32:17;10.70;99.90
4201;DHT22;2114;50.398;8.814;2023-03-23T05:37:19;10.70;99.90
4201;DHT22;2114;50.398;8.814;2023-03-23T05:42:23;10.70;99.90
4201;DHT22;2114;50.398;8.814;2023-03-23T05:47:24;10.70;99.90
4201;DHT22;2114;50.398;8.814;2023-03-23T05:52:25;10.60;99.90
4201;DHT22;2114;50.398;8.814;2023-03-23T05:57:26;10.60;99.90
4201;DHT22;2114;50.398;8.814;2023-03-23T06:02:27;10.60;99.90
4201;DHT22;2114;50.398;8.814;2023-03-23T06:07:29;10.60;99.90
4201;DHT22;2114;50.398;8.814;2023-03-23T06:12:30;10.50;99.90
4201;DHT22;2114;50.398;8.814;2023-03-23T06:17:32;10.50;99.90
4201;DHT22;2114;50.398;8.814;2023-03-23T06:22:33;10.50;99.90
4201;DHT22;2114;50.398;8.814;2023-03-23T06:27:34;10.50;99.90
4201;DHT22;2114;50.398;8.814;2023-03-23T06:32:36;10.50;99.90
4201;DHT22;2114;50.398;8.814;2023-03-23T06:37:37;10.50;99.90
4201;DHT22;2114;50.398;8.814;2023-03-23T06:42:38;10.50;99.90
4201;DHT22;2114;50.398;8.814;2023-03-23T06:47:39;10.60;99.90
4201;DHT22;2114;50.398;8.814;2023-03-23T06:52:39;10.60;99.90
4201;DHT22;2114;50.398;8.814;2023-03-23T06:57:41;10.70;99.90
4201;DHT22;2114;50.398;8.814;2023-03-23T07:02:43;10.70;99.90
4201;DHT22;2114;50.398;8.814;2023-03-23T07:07:44;10.70;99.90
4201;DHT22;2114;50.398;8.814;2023-03-23T07:12:45;10.80;99.90
4201;DHT22;2114;50.398;8.814;2023-03-23T07:17:47;10.80;99.90
4201;DHT22;2114;50.398;8.814;2023-03-23T07:22:48;10.80;99.90
4201;DHT22;2114;50.398;8.814;2023-03-23T07:27:49;10.90;99.90
4201;DHT22;2114;50.398;8.814;2023-03-23T07:32:50;10.90;99.90
4201;DHT22;2114;50.398;8.814;2023-03-23T07:37:52;10.90;99.90
4201;DHT22;2114;50.398;8.814;2023-03-23T07:42:56;10.90;99.90
4201;DHT22;2114;50.398;8.814;2023-03-23T07:47:57;10.90;99.90
4201;DHT22;2114;50.398;8.814;2023-03-23T07:52:58;10.90;99.90
4201;DHT22;2114;50.398;8.814;2023-03-23T07:57:59;10.90;99.90
4201;DHT22;2114;50.398;8.814;2023-03-23T08:03:00;11.00;99.90
4201;DHT22;2114;50.398;8.814;2023-03-23T08:08:00;11.00;99.90
4201;DHT22;2114;50.398;8.814;2023-03-23T08:13:01;11.00;99.90
4201;DHT22;2114;50.398;8.814;2023-03-23T08:18:03;11.00;99.90
4201;DHT22;2114;50.398;8.814;2023-03-23T08:23:04;11.00;99.90
4201;DHT22;2114;50.398;8.814;2023-03-23T08:28:05;11.10;99.90
4201;DHT22;2114;50.398;8.814;2023-03-23T08:33:06;11.10;99.90
4201;DHT22;2114;50.398;8.814;2023-03-23T08:38:08;11.10;99.90
4201;DHT22;2114;50.398;8.814;2023-03-23T08:43:08;11.20;99.90
4201;DHT22;2114;50.398;8.814;2023-03-23T08:48:09;11.20;99.90
4201;DHT22;2114;50.398;8.814;2023-03-23T08:53:11;11.20;99.90
4201;DHT22;2114;50.398;8.814;2023-03-23T08:58:12;11.30;99.90
4201;DHT22;2114;50.398;8.814;2023-03-23T09:03:13;11.30;99.90
4201;DHT22;2114;50.398;8.814;2023-03-23T09:08:13;11.30;99.90
4201;DHT22;2114;50.398;8.814;2023-03-23T09:13:14;11.40;99.90
4201;DHT22;2114;50.398;8.814;2023-03-23T09:18:15;11.40;99.90
4201;DHT22;2114;50.398;8.814;2023-03-23T09:23:16;11.50;99.90
4201;DHT22;2114;50.398;8.814;2023-03-23T09:28:17;11.60;99.90
4201;DHT22;2114;50.398;8.814;2023-03-23T09:33:18;11.70;99.90
4201;DHT22;2114;50.398;8.814;2023-03-23T09:38:18;11.80;99.90
4201;DHT22;2114;50.398;8.814;2023-03-23T09:49:01;12.20;99.90
4201;DHT22;2114;50.398;8.814;2023-03-23T09:54:20;12.50;99.90
4201;DHT22;2114;50.398;8.814;2023-03-23T09:59:25;12.70;99.90
4201;DHT22;2114;50.398;8.814;2023-03-23T10:04:38;13.00;99.90
4201;DHT22;2114;50.398;8.814;2023-03-23T10:09:41;13.20;99.90
4201;DHT22;2114;50.398;8.814;2023-03-23T10:25:29;13.10;99.90
4201;DHT22;2114;50.398;8.814;2023-03-23T10:30:44;12.90;99.90
4201;DHT22;2114;50.398;8.814;2023-03-23T10:35:52;12.80;99.90
4201;DHT22;2114;50.398;8.814;2023-03-23T10:40:58;12.80;99.90
4201;DHT22;2114;50.398;8.814;2023-03-23T10:46:04;12.90;99.90
4201;DHT22;2114;50.398;8.814;2023-03-23T10:51:13;13.10;99.90
4201;DHT22;2114;50.398;8.814;2023-03-23T10:56:29;13.30;99.90
4201;DHT22;2114;50.398;8.814;2023-03-23T11:01:34;13.40;99.90
4201;DHT22;2114;50.398;8.814;2023-03-23T11:06:37;13.50;99.90
4201;DHT22;2114;50.398;8.814;2023-03-23T11:11:52;13.60;99.90
4201;DHT22;2114;50.398;8.814;2023-03-23T11:16:58;13.70;99.90
4201;DHT22;2114;50.398;8.814;2023-03-23T11:22:08;13.70;99.90
4201;DHT22;2114;50.398;8.814;2023-03-23T11:27:10;13.90;99.90
4201;DHT22;2114;50.398;8.814;2023-03-23T11:32:12;14.00;99.90
4201;DHT22;2114;50.398;8.814;2023-03-23T11:42:41;13.90;99.90
4201;DHT22;2114;50.398;8.814;2023-03-23T11:53:34;13.90;99.90
4201;DHT22;2114;50.398;8.814;2023-03-23T11:58:37;13.90;99.90
4201;DHT22;2114;50.398;8.814;2023-03-23T12:25:30;13.40;99.90
4201;DHT22;2114;50.398;8.814;2023-03-23T12:31:01;13.40;99.90
4201;DHT22;2114;50.398;8.814;2023-03-23T12:41:16;13.60;99.90
4201;DHT22;2114;50.398;8.814;2023-03-23T12:51:39;13.80;99.90
4201;DHT22;2114;50.398;8.814;2023-03-23T12:57:02;14.10;99.90
4201;DHT22;2114;50.398;8.814;2023-03-23T13:02:14;14.30;99.90
4201;DHT22;2114;50.398;8.814;2023-03-23T13:07:21;14.30;99.90
4201;DHT22;2114;50.398;8.814;2023-03-23T13:12:23;14.40;99.90
4201;DHT22;2114;50.398;8.814;2023-03-23T13:17:42;14.50;99.90
4201;DHT22;2114;50.398;8.814;2023-03-23T13:28:03;14.90;99.90
4201;DHT22;2114;50.398;8.814;2023-03-23T13:33:06;15.20;99.90
4201;DHT22;2114;50.398;8.814;2023-03-23T13:38:21;15.50;99.90
4201;DHT22;2114;50.398;8.814;2023-03-23T13:43:41;15.70;99.90
4201;DHT22;2114;50.398;8.814;2023-03-23T13:49:02;16.10;99.90
4201;DHT22;2114;50.398;8.814;2023-03-23T13:54:19;16.30;99.90
4201;DHT22;2114;50.398;8.814;2023-03-23T14:04:31;16.80;99.90
4201;DHT22;2114;50.398;8.814;2023-03-23T14:09:38;17.20;99.90
4201;DHT22;2114;50.398;8.814;2023-03-23T14:14:49;17.60;99.90
4201;DHT22;2114;50.398;8.814;2023-03-23T14:19:52;17.70;99.90
4201;DHT22;2114;50.398;8.814;2023-03-23T14:25:16;17.60;99.90
4201;DHT22;2114;50.398;8.814;2023-03-23T14:30:22;17.50;99.90
4201;DHT22;2114;50.398;8.814;2023-03-23T14:35:33;17.40;99.90
4201;DHT22;2114;50.398;8.814;2023-03-23T14:40:34;17.10;99.90
4201;DHT22;2114;50.398;8.814;2023-03-23T14:45:36;16.80;99.90
4201;DHT22;2114;50.398;8.814;2023-03-23T14:55:42;16.50;99.90
4201;DHT22;2114;50.398;8.814;2023-03-23T15:01:03;16.40;99.90
4201;DHT22;2114;50.398;8.814;2023-03-23T15:06:13;16.30;99.90
4201;DHT22;2114;50.398;8.814;2023-03-23T15:21:34;16.40;99.90
4201;DHT22;2114;50.398;8.814;2023-03-23T15:26:42;16.40;99.90
4201;DHT22;2114;50.398;8.814;2023-03-23T15:31:48;16.50;99.90
4201;DHT22;2114;50.398;8.814;2023-03-23T15:36:57;16.50;99.90
4201;DHT22;2114;50.398;8.814;2023-03-23T15:41:59;16.60;99.90
4201;DHT22;2114;50.398;8.814;2023-03-23T15:47:18;16.60;99.90
4201;DHT22;2114;50.398;8.814;2023-03-23T15:52:20;16.50;99.90
4201;DHT22;2114;50.398;8.814;2023-03-23T15:57:22;16.40;99.90
4201;DHT22;2114;50.398;8.814;2023-03-23T16:02:24;16.20;99.90
4201;DHT22;2114;50.398;8.814;2023-03-23T16:07:24;16.20;99.90
4201;DHT22;2114;50.398;8.814;2023-03-23T16:12:25;16.20;99.90
4201;DHT22;2114;50.398;8.814;2023-03-23T16:17:26;16.20;99.90
4201;DHT22;2114;50.398;8.814;2023-03-23T16:22:26;16.10;99.90
4201;DHT22;2114;50.398;8.814;2023-03-23T16:27:27;16.00;99.90
4201;DHT22;2114;50.398;8.814;2023-03-23T16:32:28;16.00;99.90
4201;DHT22;2114;50.398;8.814;2023-03-23T16:37:29;15.80;99.90
4201;DHT22;2114;50.398;8.814;2023-03-23T16:42:32;15.70;99.90
4201;DHT22;2114;50.398;8.814;2023-03-23T16:47:33;15.50;99.90
4201;DHT22;2114;50.398;8.814;2023-03-23T16:52:33;15.40;99.90
4201;DHT22;2114;50.398;8.814;2023-03-23T16:57:34;15.30;99.90
4201;DHT22;2114;50.398;8.814;2023-03-23T17:02:37;15.20;99.90
4201;DHT22;2114;50.398;8.814;2023-03-23T17:07:41;15.10;99.90
4201;DHT22;2114;50.398;8.814;2023-03-23T17:12:42;15.00;99.90
4201;DHT22;2114;50.398;8.814;2023-03-23T17:17:43;14.80;99.90
4201;DHT22;2114;50.398;8.814;2023-03-23T17:22:44;14.70;99.90
4201;DHT22;2114;50.398;8.814;2023-03-23T17:27:45;14.60;99.90
4201;DHT22;2114;50.398;8.814;2023-03-23T17:32:45;14.50;99.90
4201;DHT22;2114;50.398;8.814;2023-03-23T17:37:47;14.50;99.90
4201;DHT22;2114;50.398;8.814;2023-03-23T17:42:47;14.30;99.90
4201;DHT22;2114;50.398;8.814;2023-03-23T17:47:48;14.30;99.90
4201;DHT22;2114;50.398;8.814;2023-03-23T17:52:48;14.10;99.90
4201;DHT22;2114;50.398;8.814;2023-03-23T17:57:50;14.20;99.90
4201;DHT22;2114;50.398;8.814;2023-03-23T18:02:51;14.10;99.90
4201;DHT22;2114;50.398;8.814;2023-03-23T18:07:52;13.90;99.90
4201;DHT22;2114;50.398;8.814;2023-03-23T18:12:53;14.00;99.90
4201;DHT22;2114;50.398;8.814;2023-03-23T18:17:56;14.00;99.90
4201;DHT22;2114;50.398;8.814;2023-03-23T18:22:57;13.90;99.90
4201;DHT22;2114;50.398;8.814;2023-03-23T18:27:58;13.80;99.90
4201;DHT22;2114;50.398;8.814;2023-03-23T18:32:59;13.80;99.90
4201;DHT22;2114;50.398;8.814;2023-03-23T18:38:00;13.70;99.90
4201;DHT22;2114;50.398;8.814;2023-03-23T18:43:01;13.60;99.90
4201;DHT22;2114;50.398;8.814;2023-03-23T18:48:02;13.60;99.90
4201;DHT22;2114;50.398;8.814;2023-03-23T18:53:03;13.50;99.90
4201;DHT22;2114;50.398;8.814;2023-03-23T18:58:03;13.40;99.90
4201;DHT22;2114;50.398;8.814;2023-03-23T19:03:04;13.40;99.90
4201;DHT22;2114;50.398;8.814;2023-03-23T19:08:06;13.40;99.90
4201;DHT22;2114;50.398;8.814;2023-03-23T19:13:08;13.40;99.90
4201;DHT22;2114;50.398;8.814;2023-03-23T19:18:09;13.40;99.90
4201;DHT22;2114;50.398;8.814;2023-03-23T19:23:09;13.30;99.90
4201;DHT22;2114;50.398;8.814;2023-03-23T19:28:10;13.30;99.90
4201;DHT22;2114;50.398;8.814;2023-03-23T19:33:11;13.30;99.90
4201;DHT22;2114;50.398;8.814;2023-03-23T19:38:12;13.20;99.90
4201;DHT22;2114;50.398;8.814;2023-03-23T19:43:13;13.20;99.90
4201;DHT22;2114;50.398;8.814;2023-03-23T19:48:13;13.20;99.90
4201;DHT22;2114;50.398;8.814;2023-03-23T19:53:14;13.10;99.90
4201;DHT22;2114;50.398;8.814;2023-03-23T19:58:15;13.10;99.90
4201;DHT22;2114;50.398;8.814;2023-03-23T20:03:15;13.00;99.90
4201;DHT22;2114;50.398;8.814;2023-03-23T20:08:16;12.90;99.90
4201;DHT22;2114;50.398;8.814;2023-03-23T20:13:17;12.90;99.90
4201;DHT22;2114;50.398;8.814;2023-03-23T20:18:17;12.80;99.90
4201;DHT22;2114;50.398;8.814;2023-03-23T20:23:18;12.80;99.90
4201;DHT22;2114;50.398;8.814;2023-03-23T20:28:18;12.80;99.90
4201;DHT22;2114;50.398;8.814;2023-03-23T20:33:19;12.70;99.90
4201;DHT22;2114;50.398;8.814;2023-03-23T20:38:20;12.70;99.90
4201;DHT22;2114;50.398;8.814;2023-03-23T20:43:25;12.60;99.90
4201;DHT22;2114;50.398;8.814;2023-03-23T20:48:31;12.60;99.90
4201;DHT22;2114;50.398;8.814;2023-03-23T20:53:34;12.60;99.90
4201;DHT22;2114;50.398;8.814;2023-03-23T20:58:35;12.50;99.90
4201;DHT22;2114;50.398;8.814;2023-03-23T21:03:40;12.50;99.90
4201;DHT22;2114;50.398;8.814;2023-03-23T21:08:40;12.50;99.90
4201;DHT22;2114;50.398;8.814;2023-03-23T21:13:41;12.40;99.90
4201;DHT22;2114;50.398;8.814;2023-03-23T21:18:42;12.40;99.90
4201;DHT22;2114;50.398;8.814;2023-03-23T21:23:44;12.40;99.90
4201;DHT22;2114;50.398;8.814;2023-03-23T21:28:52;12.30;99.90
4201;DHT22;2114;50.398;8.814;2023-03-23T21:33:53;12.30;99.90
4201;DHT22;2114;50.398;8.814;2023-03-23T21:38:54;12.30;99.90
4201;DHT22;2114;50.398;8.814;2023-03-23T21:43:56;12.20;99.90
4201;DHT22;2114;50.398;8.814;2023-03-23T21:48:56;12.20;99.90
4201;DHT22;2114;50.398;8.814;2023-03-23T21:53:58;12.20;99.90
4201;DHT22;2114;50.398;8.814;2023-03-23T21:58:58;12.20;99.90
4201;DHT22;2114;50.398;8.814;2023-03-23T22:04:00;12.20;99.90
4201;DHT22;2114;50.398;8.814;2023-03-23T22:09:02;12.20;99.90
4201;DHT22;2114;50.398;8.814;2023-03-23T22:14:05;12.20;99.90
4201;DHT22;2114;50.398;8.814;2023-03-23T22:19:06;12.20;99.90
4201;DHT22;2114;50.398;8.814;2023-03-23T22:24:06;12.20;99.90
4201;DHT22;2114;50.398;8.814;2023-03-23T22:29:07;12.10;99.90
4201;DHT22;2114;50.398;8.814;2023-03-23T22:34:11;12.10;99.90
4201;DHT22;2114;50.398;8.814;2023-03-23T22:39:11;12.10;99.90
4201;DHT22;2114;50.398;8.814;2023-03-23T22:44:14;12.10;99.90
4201;DHT22;2114;50.398;8.814;2023-03-23T22:49:15;12.10;99.90
4201;DHT22;2114;50.398;8.814;2023-03-23T22:54:15;12.00;99.90
4201;DHT22;2114;50.398;8.814;2023-03-23T22:59:16;12.00;99.90
4201;DHT22;2114;50.398;8.814;2023-03-23T23:04:18;12.00;99.90
4201;DHT22;2114;50.398;8.814;2023-03-23T23:09:19;12.00;99.90
4201;DHT22;2114;50.398;8.814;2023-03-23T23:14:21;12.00;99.90
4201;DHT22;2114;50.398;8.814;2023-03-23T23:19:21;12.00;99.90
4201;DHT22;2114;50.398;8.814;2023-03-23T23:24:24;12.00;99.90
4201;DHT22;2114;50.398;8.814;2023-03-23T23:29:25;12.00;99.90
4201;DHT22;2114;50.398;8.814;2023-03-23T23:34:27;11.90;99.90
4201;DHT22;2114;50.398;8.814;2023-03-23T23:39:28;11.90;99.90
4201;DHT22;2114;50.398;8.814;2023-03-23T23:44:29;11.90;99.90
4201;DHT22;2114;50.398;8.814;2023-03-23T23:49:30;11.90;99.90
4201;DHT22;2114;50.398;8.814;2023-03-23T23:54:34;11.90;99.90
4201;DHT22;2114;50.398;8.814;2023-03-23T23:59:36;11.80;99.90
